Time;durP1;ratioP1;P1;durP2;ratioP2;P2;SDS_P1;SDS_P2;PMS_P1;PMS_P2;Temp;Humidity;BMP_temperature;BMP_pressure;BME280_temperature;BME280_humidity;BME280_pressure;Samples;Min_cycle;Max_cycle;Signal;HPM_P1;HPM_P2
2022/05/24 00:01:04;;;;;;;;;23.00;22.00;;;;;23.22;38.06;100207.27;110300;1263;18966;-48
2022/05/24 00:03:32;;;;;;;;;18.67;17.33;;;;;23.22;38.26;100209.80;110334;1264;22345;-48
2022/05/24 00:05:59;;;;;;;;;22.00;22.00;;;;;23.21;38.26;100209.33;110207;1264;19547;-48
2022/05/24 00:08:26;;;;;;;;;24.33;22.00;;;;;23.22;38.12;100207.15;110237;1262;18913;-50
2022/05/24 00:10:54;;;;;;;;;24.00;23.00;;;;;23.22;38.03;100204.38;110268;1264;18835;-48
2022/05/24 00:13:22;;;;;;;;;19.00;18.50;;;;;23.20;38.19;100204.92;110121;1264;19759;-47
2022/05/24 00:15:49;;;;;;;;;18.67;18.00;;;;;23.21;38.09;100203.53;110304;1264;18891;-49
2022/05/24 00:18:16;;;;;;;;;20.00;18.00;;;;;23.21;38.09;100199.54;110234;1264;22921;-47
2022/05/24 00:20:44;;;;;;;;;22.67;22.00;;;;;23.21;38.06;100201.89;110262;1263;19760;-47
2022/05/24 00:23:11;;;;;;;;;19.00;18.00;;;;;23.22;38.14;100199.45;110235;1265;18729;-48
2022/05/24 00:25:39;;;;;;;;;18.67;18.67;;;;;23.23;38.07;100199.79;110261;1264;18995;-48
2022/05/24 00:28:06;;;;;;;;;22.00;19.50;;;;;23.23;38.16;100203.48;110257;1263;19779;-50
2022/05/24 00:30:33;;;;;;;;;20.67;19.33;;;;;23.22;38.19;100203.20;110297;1264;19025;-46
2022/05/24 00:33:02;;;;;;;;;17.67;16.33;;;;;23.23;38.12;100203.10;110298;1264;19153;-49
2022/05/24 00:35:29;;;;;;;;;21.67;20.67;;;;;23.23;38.07;100197.85;110206;1264;19921;-46
2022/05/24 00:37:56;;;;;;;;;19.00;19.00;;;;;23.22;38.02;100196.25;110273;1264;21183;-47
2022/05/24 00:40:24;;;;;;;;;16.00;15.33;;;;;23.22;38.26;100190.95;110272;1263;18881;-50
2022/05/24 00:42:51;;;;;;;;;21.00;18.33;;;;;23.24;38.29;100192.97;110308;1264;19724;-54
2022/05/24 00:45:18;;;;;;;;;20.50;20.00;;;;;23.23;38.12;100191.41;110288;1264;18988;-48
2022/05/24 00:47:46;;;;;;;;;19.00;18.67;;;;;23.23;38.33;100191.21;110319;1263;22782;-48
2022/05/24 00:50:14;;;;;;;;;16.00;16.00;;;;;23.24;38.43;100190.61;110270;1264;19868;-48
2022/05/24 00:52:41;;;;;;;;;18.00;18.00;;;;;23.23;38.29;100182.11;110304;1263;18792;-49
2022/05/24 00:55:08;;;;;;;;;21.50;20.50;;;;;23.23;38.42;100179.39;110298;1264;18813;-48
2022/05/24 00:57:35;;;;;;;;;20.50;19.00;;;;;23.23;38.52;100178.63;110331;1264;19679;-48
2022/05/24 01:00:03;;;;;;;;;17.33;15.67;;;;;23.22;38.37;100173.50;110312;1263;19109;-48
2022/05/24 01:02:30;;;;;;;;;23.33;22.00;;;;;23.22;38.47;100167.14;110253;1263;22794;-47
2022/05/24 01:04:58;;;;;;;;;14.67;14.67;;;;;23.22;38.46;100164.75;110282;1264;19701;-48
2022/05/24 01:07:25;;;;;;;;;17.33;16.33;;;;;23.22;38.48;100165.55;110266;1264;18766;-47
2022/05/24 01:09:53;;;;;;;;;17.67;17.67;;;;;23.23;38.54;100158.65;110312;1264;18723;-46
2022/05/24 01:12:20;;;;;;;;;18.33;17.33;;;;;23.23;38.60;100159.70;110279;1264;19573;-48
2022/05/24 01:14:47;;;;;;;;;18.33;18.33;;;;;23.23;38.51;100155.75;110288;1263;20552;-49
2022/05/24 01:17:15;;;;;;;;;21.33;19.33;;;;;23.23;38.52;100149.73;110273;1263;19008;-47
2022/05/24 01:19:43;;;;;;;;;16.67;15.67;;;;;23.23;38.64;100143.84;110285;1263;22708;-47
2022/05/24 01:22:11;;;;;;;;;19.00;17.67;;;;;23.23;38.59;100143.29;110295;1264;23109;-47
2022/05/24 01:24:38;;;;;;;;;18.67;18.00;;;;;23.23;38.61;100137.16;110156;1264;18828;-44
2022/05/24 01:27:05;;;;;;;;;17.00;16.00;;;;;23.22;38.67;100131.60;110179;1261;19701;-47
2022/05/24 01:29:33;;;;;;;;;18.00;16.33;;;;;23.22;38.72;100128.15;110291;1262;22207;-47
2022/05/24 01:37:29;;;;;;;;;20.00;17.33;;;;;23.22;38.75;100128.53;110203;1264;18705;-48
2022/05/24 01:39:57;;;;;;;;;18.00;18.00;;;;;23.22;38.66;100130.17;110273;1264;18845;-45
2022/05/24 01:42:24;;;;;;;;;19.00;16.33;;;;;23.22;38.70;100131.05;110260;1264;19515;-49
2022/05/24 01:44:51;;;;;;;;;18.00;18.00;;;;;23.21;38.61;100127.48;110266;1264;19005;-50
2022/05/24 01:47:19;;;;;;;;;18.67;18.00;;;;;23.22;38.66;100131.05;110257;1264;18811;-48
2022/05/24 01:49:46;;;;;;;;;16.50;15.00;;;;;23.23;38.72;100131.69;110298;1264;19896;-47
2022/05/24 01:52:13;;;;;;;;;15.67;15.00;;;;;23.22;38.65;100131.23;110318;1264;21277;-48
2022/05/24 01:54:40;;;;;;;;;13.00;12.33;;;;;23.22;38.69;100126.42;110321;1264;18880;-47
2022/05/24 01:57:08;;;;;;;;;19.00;17.67;;;;;23.21;38.58;100123.48;110274;1264;19544;-47
2022/05/24 01:59:35;;;;;;;;;15.33;14.33;;;;;23.22;38.60;100120.38;110273;1264;22781;-47
2022/05/24 02:02:03;;;;;;;;;16.00;16.00;;;;;23.21;38.63;100114.73;110318;1264;18901;-47
2022/05/24 02:04:30;;;;;;;;;18.67;18.67;;;;;23.21;38.62;100115.71;110272;1262;20105;-48
2022/05/24 02:06:58;;;;;;;;;16.00;14.50;;;;;23.22;38.59;100113.60;110346;1264;19095;-48
2022/05/24 02:09:25;;;;;;;;;17.33;16.67;;;;;23.22;38.70;100111.96;110299;1262;18882;-47
2022/05/24 02:11:52;;;;;;;;;19.00;17.67;;;;;23.22;38.61;100109.39;110217;1264;20906;-49
2022/05/24 02:14:20;;;;;;;;;16.00;15.67;;;;;23.21;38.73;100107.89;110283;1264;18992;-49
2022/05/24 02:16:47;;;;;;;;;14.33;13.67;;;;;23.21;38.72;100105.87;110275;1264;19172;-49
2022/05/24 02:19:14;;;;;;;;;18.00;16.00;;;;;23.21;38.87;100104.02;110239;1264;19537;-48
2022/05/24 02:21:42;;;;;;;;;20.33;18.00;;;;;23.20;38.69;100107.59;110303;1264;21989;-48
2022/05/24 02:24:09;;;;;;;;;14.00;14.00;;;;;23.20;38.75;100102.30;110269;1264;18872;-47
2022/05/24 02:26:36;;;;;;;;;18.00;16.00;;;;;23.21;38.72;100101.83;110272;1264;19866;-48
2022/05/24 02:29:06;;;;;;;;;18.00;15.00;;;;;23.20;38.90;100098.30;110295;1264;18765;-48
2022/05/24 02:31:33;;;;;;;;;17.67;15.33;;;;;23.19;38.84;100096.65;110286;1264;19859;-48
2022/05/24 02:34:01;;;;;;;;;18.67;18.00;;;;;23.19;38.87;100092.08;110321;1264;19627;-48
2022/05/24 02:36:28;;;;;;;;;18.00;16.67;;;;;23.19;38.83;100082.23;110261;1264;18823;-47
2022/05/24 02:38:55;;;;;;;;;16.00;15.50;;;;;23.19;38.80;100081.69;110188;1264;19574;-47
2022/05/24 02:41:33;;;;;;;;;17.00;15.00;;;;;23.18;38.76;100078.52;110282;1264;19568;-48
2022/05/24 02:44:00;;;;;;;;;17.33;16.00;;;;;23.18;38.93;100083.03;110313;1262;19133;-48
2022/05/24 02:46:27;;;;;;;;;13.50;13.50;;;;;23.20;38.85;100074.84;110294;1264;21348;-47
2022/05/24 02:48:56;;;;;;;;;15.00;15.00;;;;;23.19;38.68;100074.70;110317;1264;19977;-47
2022/05/24 02:51:23;;;;;;;;;18.00;16.33;;;;;23.20;38.85;100069.36;110295;1264;26330;-48
2022/05/24 02:53:51;;;;;;;;;16.33;14.67;;;;;23.19;38.83;100069.79;110281;1264;18874;-48
2022/05/24 02:56:18;;;;;;;;;18.00;18.00;;;;;23.21;38.86;100070.20;110283;1263;19834;-48
2022/05/24 02:58:45;;;;;;;;;16.33;15.00;;;;;23.20;38.68;100066.46;110281;1264;18797;-50
2022/05/24 03:01:12;;;;;;;;;17.33;15.33;;;;;23.20;38.77;100070.04;110271;1264;19019;-47
2022/05/24 03:03:40;;;;;;;;;18.00;17.00;;;;;23.22;38.86;100070.41;110310;1264;19693;-47
2022/05/24 03:06:07;;;;;;;;;15.00;15.00;;;;;23.22;38.80;100069.15;110245;1262;22705;-47
2022/05/24 03:11:19;;;;;;;;;16.00;14.00;;;;;23.21;38.84;100066.29;110273;1263;22682;-47
2022/05/24 03:16:32;;;;;;;;;18.00;17.00;;;;;23.21;38.88;100055.85;110295;1262;19231;-48
2022/05/24 03:18:59;;;;;;;;;14.00;14.00;;;;;23.22;38.85;100052.86;110303;1262;19975;-46
2022/05/24 03:21:26;;;;;;;;;16.00;15.50;;;;;23.22;38.97;100046.85;110272;1264;18942;-48
2022/05/24 03:23:54;;;;;;;;;17.00;16.00;;;;;23.22;38.87;100041.89;110298;1262;19006;-48
2022/05/24 03:26:21;;;;;;;;;19.00;18.00;;;;;23.22;38.99;100043.73;110286;1264;19770;-47
2022/05/24 03:28:48;;;;;;;;;17.33;15.00;;;;;23.22;39.03;100045.55;110289;1263;18997;-48
2022/05/24 03:31:16;;;;;;;;;17.00;14.00;;;;;23.21;39.10;100040.04;110297;1264;20423;-47
2022/05/24 03:33:44;;;;;;;;;19.00;16.00;;;;;23.21;39.01;100041.48;110292;1264;19573;-48
2022/05/24 03:36:11;;;;;;;;;18.33;16.00;;;;;23.21;39.13;100041.48;110289;1264;20364;-48
2022/05/24 03:38:39;;;;;;;;;15.00;14.00;;;;;23.21;38.96;100038.83;110264;1264;19056;-48
2022/05/24 03:41:06;;;;;;;;;14.00;14.00;;;;;23.21;38.93;100043.16;110280;1264;19566;-47
2022/05/24 03:43:33;;;;;;;;;15.33;14.67;;;;;23.20;39.14;100042.20;110179;1265;18784;-46
2022/05/24 03:46:00;;;;;;;;;15.00;14.50;;;;;23.20;38.96;100042.19;110293;1263;22849;-48
2022/05/24 03:48:28;;;;;;;;;15.00;14.00;;;;;23.19;39.03;100041.69;110267;1264;19697;-44
2022/05/24 03:50:56;;;;;;;;;19.67;14.00;;;;;23.20;39.04;100037.61;110257;1264;19007;-47
2022/05/24 03:53:23;;;;;;;;;19.33;15.00;;;;;23.20;39.00;100036.68;110293;1264;18863;-48
2022/05/24 03:55:51;;;;;;;;;14.00;12.00;;;;;23.20;39.03;100034.49;110310;1263;19879;-47
2022/05/24 03:58:18;;;;;;;;;19.67;14.33;;;;;23.19;38.93;100033.53;110285;1264;19171;-47
2022/05/24 04:00:45;;;;;;;;;15.33;15.33;;;;;23.19;39.05;100036.05;110322;1261;19012;-45
2022/05/24 04:03:13;;;;;;;;;15.00;14.00;;;;;23.19;38.93;100039.88;110302;1262;19552;-47
2022/05/24 04:05:40;;;;;;;;;13.00;13.00;;;;;23.19;38.97;100033.02;110318;1262;21990;-49
2022/05/24 04:08:07;;;;;;;;;14.00;13.50;;;;;23.20;38.90;100032.64;110338;1262;19161;-48
2022/05/24 04:10:35;;;;;;;;;17.00;15.50;;;;;23.22;39.00;100033.02;110250;1263;19494;-48
2022/05/24 04:13:02;;;;;;;;;15.00;15.00;;;;;23.22;39.03;100030.61;110294;1262;19082;-43
2022/05/24 04:15:29;;;;;;;;;14.00;14.00;;;;;23.23;38.91;100032.17;110302;1262;18954;-45
2022/05/24 04:17:57;;;;;;;;;18.00;15.00;;;;;23.23;38.95;100026.88;110317;1262;19745;-45
2022/05/24 04:20:24;;;;;;;;;15.67;15.00;;;;;23.24;39.06;100025.48;110282;1262;28168;-48
2022/05/24 04:22:53;;;;;;;;;16.00;15.00;;;;;23.24;38.97;100027.80;110376;1262;19222;-47
2022/05/24 04:25:20;;;;;;;;;16.00;16.00;;;;;23.24;38.85;100026.15;110308;1262;20058;-47
2022/05/24 04:27:47;;;;;;;;;17.00;15.00;;;;;23.24;39.00;100031.25;110376;1262;18872;-47
2022/05/24 04:30:15;;;;;;;;;15.67;13.67;;;;;23.25;38.98;100028.81;110343;1262;19366;-48
2022/05/24 04:32:42;;;;;;;;;19.00;16.00;;;;;23.25;38.96;100027.52;110302;1262;22081;-48
2022/05/24 04:35:09;;;;;;;;;12.00;12.00;;;;;23.26;39.07;100025.96;110300;1262;18731;-48
2022/05/24 04:37:37;;;;;;;;;14.00;13.67;;;;;23.26;39.07;100023.95;110303;1262;18961;-50
2022/05/24 04:40:04;;;;;;;;;14.33;12.00;;;;;23.26;38.98;100027.94;110314;1264;19676;-48
2022/05/24 04:42:31;;;;;;;;;16.67;16.00;;;;;23.27;38.95;100027.43;110323;1262;20100;-48
2022/05/24 04:44:59;;;;;;;;;14.00;12.00;;;;;23.26;38.96;100016.79;110311;1262;22303;-48
2022/05/24 04:47:26;;;;;;;;;14.33;12.67;;;;;23.27;38.98;100023.34;110319;1262;21842;-50
2022/05/24 04:49:54;;;;;;;;;16.00;15.33;;;;;23.27;38.99;100021.79;110300;1262;18982;-48
2022/05/24 04:52:21;;;;;;;;;14.00;14.00;;;;;23.27;38.91;100019.73;110263;1262;18704;-48
2022/05/24 04:54:49;;;;;;;;;15.00;15.00;;;;;23.28;39.07;100026.33;110269;1264;19547;-47
2022/05/24 04:57:16;;;;;;;;;15.67;15.00;;;;;23.29;38.97;100024.73;110233;1263;21049;-47
2022/05/24 04:59:43;;;;;;;;;16.00;14.00;;;;;23.32;38.93;100023.89;110294;1264;19133;-47
2022/05/24 05:02:10;;;;;;;;;14.00;13.67;;;;;23.31;38.95;100022.05;110301;1264;19484;-48
2022/05/24 05:04:38;;;;;;;;;13.00;12.33;;;;;23.31;39.23;100022.71;110271;1263;18849;-45
2022/05/24 05:07:05;;;;;;;;;15.00;14.00;;;;;23.30;39.28;100016.14;110306;1264;19137;-48
2022/05/24 05:09:35;;;;;;;;;18.00;14.33;;;;;23.31;39.26;100015.35;110283;1264;25270;-48
2022/05/24 05:12:02;;;;;;;;;16.00;15.50;;;;;23.30;39.34;100015.85;110297;1264;19088;-49
2022/05/24 05:14:30;;;;;;;;;14.67;14.00;;;;;23.30;39.34;100017.10;110289;1264;19148;-48
2022/05/24 05:16:57;;;;;;;;;16.00;16.00;;;;;23.29;39.30;100017.02;110300;1264;19809;-47
2022/05/24 05:19:24;;;;;;;;;14.67;14.33;;;;;23.29;39.23;100011.39;110239;1261;19045;-47
2022/05/24 05:21:52;;;;;;;;;16.33;16.33;;;;;23.31;39.19;100009.75;110241;1264;19014;-48
2022/05/24 05:24:19;;;;;;;;;16.00;14.67;;;;;23.31;39.26;100010.94;110237;1263;19568;-48
2022/05/24 05:26:46;;;;;;;;;14.00;14.00;;;;;23.34;39.34;100004.24;110285;1264;19072;-48
2022/05/24 05:29:14;;;;;;;;;14.67;14.67;;;;;23.38;39.60;100009.92;110323;1262;18904;-46
2022/05/24 05:31:41;;;;;;;;;14.00;14.00;;;;;23.41;39.31;100010.66;110271;1264;20084;-48
2022/05/24 05:34:08;;;;;;;;;14.00;14.00;;;;;23.41;39.60;100008.14;110321;1262;18828;-47
2022/05/24 05:36:36;;;;;;;;;18.00;14.00;;;;;23.40;39.42;100013.58;110188;1262;18871;-50
2022/05/24 05:39:03;;;;;;;;;16.00;15.00;;;;;23.39;39.29;100007.05;110275;1264;19953;-50
2022/05/24 05:41:30;;;;;;;;;15.00;14.00;;;;;23.40;39.23;100011.80;109976;1264;197964;-48
2022/05/24 05:43:57;;;;;;;;;14.00;13.00;;;;;23.40;39.21;100014.63;110121;1262;20267;-51
2022/05/24 05:46:25;;;;;;;;;14.50;14.00;;;;;23.40;39.24;100015.59;110125;1262;19921;-49
2022/05/24 05:48:52;;;;;;;;;14.33;12.67;;;;;23.38;39.19;100015.77;110158;1262;19009;-49
2022/05/24 05:51:19;;;;;;;;;13.67;13.67;;;;;23.39;39.32;100011.69;110211;1263;18874;-49
2022/05/24 05:53:47;;;;;;;;;15.67;14.67;;;;;23.44;39.39;100011.67;110239;1264;19568;-49
2022/05/24 05:56:14;;;;;;;;;15.33;14.00;;;;;23.48;39.41;100012.65;110266;1262;24282;-50
2022/05/24 05:58:41;;;;;;;;;14.00;14.00;;;;;23.52;39.40;100009.19;110242;1262;19242;-51
2022/05/24 06:01:09;;;;;;;;;11.00;11.00;;;;;23.55;39.45;100009.98;110214;1264;21705;-49
2022/05/24 06:03:36;;;;;;;;;15.00;12.00;;;;;23.56;39.34;100012.26;110220;1262;19253;-49
2022/05/24 06:06:03;;;;;;;;;14.67;13.67;;;;;23.55;39.31;100009.10;110279;1262;18969;-49
2022/05/24 06:08:31;;;;;;;;;13.00;12.00;;;;;23.53;39.31;100009.69;110252;1264;19534;-48
2022/05/24 06:10:58;;;;;;;;;12.67;12.00;;;;;23.52;39.19;100009.90;110286;1263;18921;-49
2022/05/24 06:13:25;;;;;;;;;12.33;12.33;;;;;22.54;38.64;100005.91;110256;1262;22076;-50
2022/05/24 06:15:55;;;;;;;;;13.00;13.00;;;;;21.55;39.63;100010.55;110245;1264;19866;-48
2022/05/24 06:18:22;;;;;;;;;11.00;11.00;;;;;20.96;40.57;100004.60;110287;1264;19406;-49
2022/05/24 06:20:50;;;;;;;;;10.00;9.00;;;;;21.73;39.94;99996.51;110241;1264;18956;-48
2022/05/24 06:23:17;;;;;;;;;10.50;10.00;;;;;22.36;39.24;99998.13;110208;1264;19786;-50
2022/05/24 06:25:44;;;;;;;;;12.00;11.00;;;;;22.71;38.77;99993.50;110125;1263;18945;-51
2022/05/24 06:28:12;;;;;;;;;12.33;10.00;;;;;22.91;38.65;99993.42;110226;1264;20261;-49
2022/05/24 06:30:40;;;;;;;;;10.67;10.67;;;;;23.07;38.30;99999.33;110274;1264;19562;-50
2022/05/24 06:33:08;;;;;;;;;12.33;11.67;;;;;23.15;38.27;99996.89;110245;1263;18789;-46
2022/05/24 06:35:35;;;;;;;;;10.33;10.33;;;;;23.21;38.33;100000.00;110241;1264;19060;-51
2022/05/24 06:38:02;;;;;;;;;10.67;10.33;;;;;23.23;38.32;99997.77;110279;1262;19792;-49
2022/05/24 06:40:29;;;;;;;;;10.00;9.00;;;;;23.26;38.37;99995.23;110231;1264;20143;-49
2022/05/24 06:42:57;;;;;;;;;11.00;10.00;;;;;23.30;38.60;99994.52;110254;1264;18822;-50
2022/05/24 06:45:24;;;;;;;;;10.00;10.00;;;;;23.35;38.57;99995.11;110237;1264;21855;-48
2022/05/24 06:47:51;;;;;;;;;10.67;10.33;;;;;23.35;38.36;99995.14;110233;1263;18802;-46
2022/05/24 06:50:20;;;;;;;;;10.00;9.67;;;;;23.33;38.29;99995.91;110242;1264;23234;-47
2022/05/24 06:52:47;;;;;;;;;9.00;9.00;;;;;23.34;38.48;99995.73;110251;1264;19655;-50
2022/05/24 06:55:15;;;;;;;;;9.00;9.00;;;;;23.35;38.43;99994.69;110261;1262;19302;-51
2022/05/24 06:57:42;;;;;;;;;13.00;10.00;;;;;22.91;38.39;99994.16;110309;1262;19138;-49
2022/05/24 07:02:54;;;;;;;;;10.00;10.00;;;;;20.65;40.57;99997.04;110247;1262;19078;-49
2022/05/24 07:05:22;;;;;;;;;11.00;10.00;;;;;20.31;41.27;99985.57;110257;1262;22184;-48
2022/05/24 07:07:49;;;;;;;;;10.00;10.00;;;;;20.37;41.55;99991.25;110225;1263;19701;-50
2022/05/24 07:10:16;;;;;;;;;9.67;9.67;;;;;20.35;41.62;99986.98;110244;1261;19187;-51
2022/05/24 07:12:45;;;;;;;;;9.00;9.00;;;;;20.32;41.63;99991.35;110288;1264;18999;-49
2022/05/24 07:15:12;;;;;;;;;10.00;9.00;;;;;20.38;41.71;99981.70;110262;1263;20243;-50
2022/05/24 07:17:40;;;;;;;;;9.67;9.00;;;;;21.20;40.48;99975.75;110248;1262;21923;-50
2022/05/24 07:20:07;;;;;;;;;10.33;9.67;;;;;21.77;39.65;99965.44;110204;1264;18610;-50
2022/05/24 07:22:35;;;;;;;;;12.67;12.33;;;;;22.12;39.02;99966.96;110203;1262;22016;-51
2022/05/24 07:25:02;;;;;;;;;10.00;10.00;;;;;22.36;38.45;99970.91;110282;1264;18904;-49
2022/05/24 07:27:30;;;;;;;;;8.00;8.00;;;;;22.50;38.39;99977.66;110295;1264;22303;-50
2022/05/24 07:29:57;;;;;;;;;9.50;9.00;;;;;22.60;38.24;99973.06;110296;1264;20100;-50
2022/05/24 07:32:24;;;;;;;;;8.33;7.00;;;;;22.69;38.14;99982.23;110271;1263;18414;-49
2022/05/24 07:34:51;;;;;;;;;10.00;9.33;;;;;22.75;37.97;99983.50;110283;1264;18815;-51
2022/05/24 07:37:21;;;;;;;;;10.00;9.67;;;;;22.79;37.85;99982.59;110243;1264;19891;-50
2022/05/24 07:39:48;;;;;;;;;9.00;9.00;;;;;22.82;37.92;99985.95;110304;1263;18877;-50
2022/05/24 07:47:45;;;;;;;;;7.00;7.00;;;;;22.90;37.42;99993.48;110246;1264;18925;-49
2022/05/24 07:50:12;;;;;;;;;10.33;10.00;;;;;22.91;37.32;99994.23;110217;1264;19001;-53
2022/05/24 07:52:40;;;;;;;;;8.00;8.00;;;;;22.92;37.38;99998.81;110258;1263;22259;-51
2022/05/24 07:55:07;;;;;;;;;7.67;7.00;;;;;22.93;37.19;99995.58;110351;1262;18723;-48
2022/05/24 07:57:34;;;;;;;;;8.33;7.67;;;;;22.95;37.16;99995.66;110247;1262;19062;-50
2022/05/24 08:00:02;;;;;;;;;9.67;9.00;;;;;22.95;37.18;99994.20;110300;1262;22307;-50
2022/05/24 08:02:29;;;;;;;;;7.67;7.67;;;;;22.95;37.08;100000.00;110220;1263;18997;-50
2022/05/24 08:04:56;;;;;;;;;8.33;8.33;;;;;22.97;36.93;100004.38;110270;1264;19172;-50
2022/05/24 08:07:24;;;;;;;;;9.00;7.00;;;;;22.98;36.90;99999.78;110282;1264;19437;-50
2022/05/24 08:09:51;;;;;;;;;7.00;7.00;;;;;22.99;37.00;99993.81;110330;1264;18878;-48
2022/05/24 08:12:18;;;;;;;;;9.67;9.00;;;;;22.99;36.89;99994.61;110305;1262;18878;-50
2022/05/24 08:14:46;;;;;;;;;9.00;7.67;;;;;22.99;36.99;99993.52;110325;1262;22109;-50
2022/05/24 08:17:13;;;;;;;;;9.67;9.00;;;;;22.98;37.05;99989.61;110221;1263;18573;-49
2022/05/24 08:19:40;;;;;;;;;7.00;7.00;;;;;22.98;37.06;99984.52;110258;1264;19100;-50
2022/05/24 08:22:08;;;;;;;;;9.50;9.00;;;;;22.99;37.23;99985.66;110336;1262;19860;-52
2022/05/24 08:24:35;;;;;;;;;9.67;9.00;;;;;23.01;37.26;99981.20;110167;1262;18466;-48
2022/05/24 08:27:02;;;;;;;;;7.00;7.00;;;;;23.01;37.21;99984.15;110142;1263;20487;-51
2022/05/24 08:29:31;;;;;;;;;9.50;9.50;;;;;23.02;37.43;99988.52;110255;1264;20997;-50
2022/05/24 08:31:58;;;;;;;;;11.00;9.00;;;;;23.03;37.39;99989.83;110254;1263;18802;-48
2022/05/24 08:34:25;;;;;;;;;8.00;8.00;;;;;23.04;37.49;99988.73;110286;1262;18995;-49
2022/05/24 08:36:53;;;;;;;;;9.00;7.00;;;;;23.05;37.73;99990.49;110291;1264;19820;-50
2022/05/24 08:39:20;;;;;;;;;9.00;8.33;;;;;23.05;37.67;99989.27;110221;1262;18674;-48
2022/05/24 08:41:47;;;;;;;;;10.67;10.67;;;;;23.06;37.87;99993.60;110204;1263;19626;-47
2022/05/24 08:49:45;;;;;;;;;9.00;9.00;;;;;21.16;41.26;100009.46;110180;1264;18849;-49
2022/05/24 08:52:13;;;;;;;;;10.00;10.00;;;;;20.98;41.50;100006.81;110274;1264;19869;-49
2022/05/24 08:54:40;;;;;;;;;10.00;9.00;;;;;21.14;41.53;100004.09;110182;1262;18588;-49
2022/05/24 08:57:08;;;;;;;;;10.00;10.00;;;;;21.01;41.25;100009.13;110174;1263;19018;-49
2022/05/24 08:59:36;;;;;;;;;12.00;10.00;;;;;20.88;41.62;100010.91;110088;1262;20746;-49
2022/05/24 09:02:03;;;;;;;;;11.50;10.00;;;;;20.50;41.90;100012.35;110211;1264;22029;-49
2022/05/24 09:04:31;;;;;;;;;11.00;9.00;;;;;20.24;42.32;100003.40;110269;1264;19627;-49
2022/05/24 09:06:59;;;;;;;;;9.00;8.33;;;;;20.09;42.46;100008.40;110312;1263;19714;-48
2022/05/24 09:09:28;;;;;;;;;12.00;11.67;;;;;20.34;42.31;100014.96;110238;1264;20905;-50
2022/05/24 09:11:56;;;;;;;;;12.00;11.50;;;;;20.49;42.09;100011.27;110255;1264;18904;-50
2022/05/24 09:14:23;;;;;;;;;12.00;11.00;;;;;20.43;42.39;100013.23;110229;1262;22260;-48
2022/05/24 09:16:51;;;;;;;;;11.67;11.00;;;;;20.49;42.45;100011.51;110224;1262;18997;-48
2022/05/24 09:19:18;;;;;;;;;9.00;9.00;;;;;20.40;42.72;100017.16;110211;1263;19071;-48
2022/05/24 09:21:51;;;;;;;;;9.00;9.00;;;;;20.28;42.78;100016.14;110203;1262;19735;-48
2022/05/24 09:24:19;;;;;;;;;10.33;9.00;;;;;20.48;42.82;100017.98;110174;1262;22475;-48
2022/05/24 09:26:46;;;;;;;;;9.67;9.67;;;;;20.52;42.67;100018.77;110234;1262;20731;-50
2022/05/24 09:29:17;;;;;;;;;12.50;12.00;;;;;20.52;43.03;100022.64;110225;1263;20267;-47
2022/05/24 09:31:44;;;;;;;;;13.00;12.00;;;;;20.51;43.14;100017.05;110247;1262;18719;-46
2022/05/24 09:34:12;;;;;;;;;9.67;9.67;;;;;20.57;43.04;100014.02;110317;1264;20264;-51
2022/05/24 09:36:39;;;;;;;;;9.00;9.00;;;;;20.64;43.08;100009.83;110224;1262;19860;-50
2022/05/24 09:39:06;;;;;;;;;12.67;11.33;;;;;20.84;43.20;100014.04;110224;1262;18660;-50
2022/05/24 09:41:34;;;;;;;;;11.67;10.00;;;;;20.78;43.04;100020.15;110230;1264;19047;-49
2022/05/24 09:44:01;;;;;;;;;10.33;9.00;;;;;20.57;43.41;100025.08;110236;1262;23033;-52
2022/05/24 09:46:28;;;;;;;;;11.33;11.00;;;;;20.62;43.55;100025.59;110252;1264;18781;-50
2022/05/24 09:48:56;;;;;;;;;12.00;11.00;;;;;20.58;43.39;100036.11;110295;1264;19004;-49
2022/05/24 09:51:23;;;;;;;;;12.00;11.00;;;;;20.39;43.68;100031.05;110230;1263;22918;-49
2022/05/24 09:53:51;;;;;;;;;9.00;9.00;;;;;20.32;43.52;100028.88;110277;1262;18973;-50
2022/05/24 09:56:19;;;;;;;;;12.00;9.67;;;;;20.47;43.40;100027.39;110295;1263;19174;-49
2022/05/24 09:58:46;;;;;;;;;11.67;11.00;;;;;20.65;43.02;100026.21;110276;1264;19896;-50
2022/05/24 10:01:14;;;;;;;;;11.67;9.67;;;;;20.64;43.12;100027.46;110300;1263;19064;-49
2022/05/24 10:03:41;;;;;;;;;13.00;12.00;;;;;20.58;43.72;100027.77;110267;1264;18792;-49
2022/05/24 10:06:08;;;;;;;;;11.50;11.00;;;;;20.46;44.23;100021.30;110268;1264;20108;-50
2022/05/24 10:08:36;;;;;;;;;11.00;11.00;;;;;20.42;44.29;100031.84;110247;1263;18783;-50
2022/05/24 10:11:03;;;;;;;;;12.00;11.00;;;;;20.40;44.84;100031.02;110275;1262;19145;-52
2022/05/24 10:13:31;;;;;;;;;13.67;12.33;;;;;20.46;45.10;100044.88;110231;1263;22229;-50
2022/05/24 10:15:59;;;;;;;;;12.33;11.00;;;;;20.19;46.11;100046.67;110228;1264;19104;-49
2022/05/24 10:18:26;;;;;;;;;11.00;11.00;;;;;20.08;46.66;100042.42;110324;1264;23459;-50
2022/05/24 10:20:54;;;;;;;;;12.67;12.67;;;;;20.20;46.90;100046.52;110074;1264;19507;-51
2022/05/24 10:23:21;;;;;;;;;12.00;12.00;;;;;20.03;47.28;100035.73;110114;1262;18787;-50
2022/05/24 10:25:48;;;;;;;;;10.00;9.00;;;;;20.14;47.38;100038.20;110174;1264;18905;-49
2022/05/24 10:28:16;;;;;;;;;12.00;11.00;;;;;20.01;47.67;100041.49;110291;1264;19879;-49
2022/05/24 10:30:43;;;;;;;;;12.50;12.00;;;;;20.10;47.44;100037.77;110259;1264;18749;-49
2022/05/24 10:38:41;;;;;;;;;11.00;11.00;;;;;19.87;49.57;100038.21;110244;1264;18581;-50
2022/05/24 10:41:08;;;;;;;;;11.67;11.00;;;;;19.85;50.17;100043.40;110232;1264;19209;-48
2022/05/24 10:43:35;;;;;;;;;11.67;11.00;;;;;19.64;51.30;100042.21;110168;1262;19944;-50
2022/05/24 10:46:02;;;;;;;;;13.00;13.00;;;;;19.45;51.93;100034.38;110242;1263;19428;-51
2022/05/24 10:48:31;;;;;;;;;14.00;12.00;;;;;19.45;52.25;100035.88;110152;1264;18880;-49
2022/05/24 10:50:59;;;;;;;;;14.33;14.33;;;;;19.41;52.29;100028.96;110094;1264;19628;-50
2022/05/24 10:53:26;;;;;;;;;11.00;11.00;;;;;19.26;53.08;100031.89;110175;1263;18700;-46
2022/05/24 10:55:57;;;;;;;;;15.00;12.67;;;;;19.41;52.71;100031.02;110188;1262;18998;-48
2022/05/24 10:58:24;;;;;;;;;11.00;11.00;;;;;19.94;51.41;100038.46;110174;1264;19895;-48
2022/05/24 11:00:51;;;;;;;;;13.00;12.00;;;;;20.31;50.26;100041.51;110167;1262;18767;-51
2022/05/24 11:03:19;;;;;;;;;11.00;9.00;;;;;20.43;49.82;100043.26;110217;1264;18771;-47
2022/05/24 11:05:46;;;;;;;;;11.67;11.00;;;;;20.60;49.34;100045.39;110248;1264;19547;-48
2022/05/24 11:08:13;;;;;;;;;13.00;12.00;;;;;20.67;49.20;100041.95;110227;1264;19002;-48
2022/05/24 11:10:41;;;;;;;;;13.00;13.00;;;;;20.70;49.11;100043.02;110201;1262;19012;-49
2022/05/24 11:13:08;;;;;;;;;12.00;11.33;;;;;20.70;49.18;100048.64;110196;1264;22939;-48
2022/05/24 11:15:35;;;;;;;;;14.00;11.50;;;;;20.78;48.97;100046.96;110235;1263;18936;-46
2022/05/24 11:18:03;;;;;;;;;14.67;13.33;;;;;20.86;48.47;100049.65;110234;1264;19068;-49
2022/05/24 11:20:30;;;;;;;;;11.33;10.33;;;;;20.74;48.72;100049.70;110214;1263;19651;-49
2022/05/24 11:22:57;;;;;;;;;10.33;10.33;;;;;20.82;48.71;100051.79;110224;1263;18796;-49
2022/05/24 11:25:25;;;;;;;;;12.00;10.33;;;;;20.83;48.25;100054.61;110211;1263;19876;-50
2022/05/24 11:27:52;;;;;;;;;12.00;11.67;;;;;20.91;48.46;100048.52;110328;1263;22765;-49
2022/05/24 11:30:20;;;;;;;;;11.00;9.00;;;;;20.95;48.80;100050.87;110253;1263;18812;-50
2022/05/24 11:32:47;;;;;;;;;10.33;10.33;;;;;20.87;49.51;100055.16;110276;1264;22922;-50
2022/05/24 11:35:15;;;;;;;;;11.33;11.00;;;;;20.97;49.64;100053.77;110177;1262;19550;-50